sensor_id;sensor_type;location;lat;lon;timestamp;P1;durP1;ratioP1;P2;durP2;ratioP2
14686;SDS011;7431;49.440;11.084;2023-03-23T00:01:10;5.10;;;3.93;;
14686;SDS011;7431;49.440;11.084;2023-03-23T00:03:38;4.23;;;3.67;;
14686;SDS011;7431;49.440;11.084;2023-03-23T00:06:04;5.30;;;4.33;;
14686;SDS011;7431;49.440;11.084;2023-03-23T00:08:31;4.87;;;3.77;;
14686;SDS011;7431;49.440;11.084;2023-03-23T00:11:13;4.90;;;3.90;;
14686;SDS011;7431;49.440;11.084;2023-03-23T00:13:49;5.10;;;3.90;;
14686;SDS011;7431;49.440;11.084;2023-03-23T00:16:16;4.93;;;4.00;;
14686;SDS011;7431;49.440;11.084;2023-03-23T00:18:47;4.50;;;4.07;;
14686;SDS011;7431;49.440;11.084;2023-03-23T00:21:17;4.17;;;3.77;;
14686;SDS011;7431;49.440;11.084;2023-03-23T00:23:50;5.83;;;3.80;;
14686;SDS011;7431;49.440;11.084;2023-03-23T00:26:16;6.43;;;3.60;;
14686;SDS011;7431;49.440;11.084;2023-03-23T00:28:41;4.70;;;3.77;;
14686;SDS011;7431;49.440;11.084;2023-03-23T00:31:07;3.90;;;3.60;;
14686;SDS011;7431;49.440;11.084;2023-03-23T00:33:35;4.77;;;3.77;;
14686;SDS011;7431;49.440;11.084;2023-03-23T00:36:06;4.03;;;3.60;;
14686;SDS011;7431;49.440;11.084;2023-03-23T00:38:36;3.53;;;3.23;;
14686;SDS011;7431;49.440;11.084;2023-03-23T00:41:03;3.60;;;3.20;;
14686;SDS011;7431;49.440;11.084;2023-03-23T00:43:28;4.03;;;3.23;;
14686;SDS011;7431;49.440;11.084;2023-03-23T00:45:55;5.00;;;3.73;;
14686;SDS011;7431;49.440;11.084;2023-03-23T00:48:34;4.10;;;3.70;;
14686;SDS011;7431;49.440;11.084;2023-03-23T00:51:09;3.83;;;3.40;;
14686;SDS011;7431;49.440;11.084;2023-03-23T00:53:36;3.83;;;3.40;;
14686;SDS011;7431;49.440;11.084;2023-03-23T00:56:08;3.63;;;3.07;;
14686;SDS011;7431;49.440;11.084;2023-03-23T00:58:34;3.40;;;3.10;;
14686;SDS011;7431;49.440;11.084;2023-03-23T01:01:00;4.47;;;3.53;;
14686;SDS011;7431;49.440;11.084;2023-03-23T01:03:26;3.60;;;3.30;;
14686;SDS011;7431;49.440;11.084;2023-03-23T01:05:53;4.40;;;3.43;;
14686;SDS011;7431;49.440;11.084;2023-03-23T01:08:20;3.50;;;3.20;;
14686;SDS011;7431;49.440;11.084;2023-03-23T01:10:47;3.67;;;3.37;;
14686;SDS011;7431;49.440;11.084;2023-03-23T01:13:13;4.10;;;3.13;;
14686;SDS011;7431;49.440;11.084;2023-03-23T01:15:40;3.77;;;3.00;;
14686;SDS011;7431;49.440;11.084;2023-03-23T01:18:07;3.97;;;3.10;;
14686;SDS011;7431;49.440;11.084;2023-03-23T01:20:33;3.93;;;3.40;;
14686;SDS011;7431;49.440;11.084;2023-03-23T01:23:00;6.17;;;3.17;;
14686;SDS011;7431;49.440;11.084;2023-03-23T01:25:30;3.50;;;3.20;;
14686;SDS011;7431;49.440;11.084;2023-03-23T01:27:57;3.30;;;3.00;;
14686;SDS011;7431;49.440;11.084;2023-03-23T01:30:23;3.53;;;3.10;;
14686;SDS011;7431;49.440;11.084;2023-03-23T01:32:50;4.27;;;2.83;;
14686;SDS011;7431;49.440;11.084;2023-03-23T01:35:16;3.80;;;3.40;;
14686;SDS011;7431;49.440;11.084;2023-03-23T01:37:42;3.77;;;3.00;;
14686;SDS011;7431;49.440;11.084;2023-03-23T01:40:08;3.43;;;3.13;;
14686;SDS011;7431;49.440;11.084;2023-03-23T01:42:35;3.40;;;3.10;;
14686;SDS011;7431;49.440;11.084;2023-03-23T01:47:47;3.40;;;2.97;;
14686;SDS011;7431;49.440;11.084;2023-03-23T01:50:17;3.53;;;3.10;;
14686;SDS011;7431;49.440;11.084;2023-03-23T01:52:43;3.37;;;2.90;;
14686;SDS011;7431;49.440;11.084;2023-03-23T01:55:09;2.87;;;2.50;;
14686;SDS011;7431;49.440;11.084;2023-03-23T01:57:36;3.33;;;2.80;;
14686;SDS011;7431;49.440;11.084;2023-03-23T02:00:04;3.30;;;2.67;;
14686;SDS011;7431;49.440;11.084;2023-03-23T02:02:35;3.40;;;3.10;;
14686;SDS011;7431;49.440;11.084;2023-03-23T02:05:04;3.07;;;2.73;;
14686;SDS011;7431;49.440;11.084;2023-03-23T02:07:36;3.03;;;2.63;;
14686;SDS011;7431;49.440;11.084;2023-03-23T02:10:02;3.07;;;2.70;;
14686;SDS011;7431;49.440;11.084;2023-03-23T02:12:28;4.97;;;2.60;;
14686;SDS011;7431;49.440;11.084;2023-03-23T02:14:54;3.17;;;2.63;;
14686;SDS011;7431;49.440;11.084;2023-03-23T02:20:02;3.33;;;2.53;;
14686;SDS011;7431;49.440;11.084;2023-03-23T02:26:17;4.00;;;2.43;;
14686;SDS011;7431;49.440;11.084;2023-03-23T02:29:20;3.93;;;2.50;;
14686;SDS011;7431;49.440;11.084;2023-03-23T02:35:38;3.00;;;2.30;;
14686;SDS011;7431;49.440;11.084;2023-03-23T02:38:11;4.00;;;2.70;;
14686;SDS011;7431;49.440;11.084;2023-03-23T02:40:45;3.37;;;2.40;;
14686;SDS011;7431;49.440;11.084;2023-03-23T02:43:15;3.27;;;2.47;;
14686;SDS011;7431;49.440;11.084;2023-03-23T02:45:47;3.07;;;2.20;;
14686;SDS011;7431;49.440;11.084;2023-03-23T02:48:16;2.73;;;2.30;;
14686;SDS011;7431;49.440;11.084;2023-03-23T02:50:45;2.60;;;2.23;;
14686;SDS011;7431;49.440;11.084;2023-03-23T02:53:15;2.27;;;2.03;;
14686;SDS011;7431;49.440;11.084;2023-03-23T02:55:45;2.50;;;2.30;;
14686;SDS011;7431;49.440;11.084;2023-03-23T02:58:11;2.53;;;2.10;;
14686;SDS011;7431;49.440;11.084;2023-03-23T03:00:38;2.60;;;2.40;;
14686;SDS011;7431;49.440;11.084;2023-03-23T03:03:04;2.53;;;2.27;;
14686;SDS011;7431;49.440;11.084;2023-03-23T03:05:38;2.30;;;2.10;;
14686;SDS011;7431;49.440;11.084;2023-03-23T03:08:15;3.77;;;2.10;;
14686;SDS011;7431;49.440;11.084;2023-03-23T03:13:32;2.67;;;2.37;;
14686;SDS011;7431;49.440;11.084;2023-03-23T03:19:02;3.27;;;2.30;;
14686;SDS011;7431;49.440;11.084;2023-03-23T03:21:36;2.70;;;2.50;;
14686;SDS011;7431;49.440;11.084;2023-03-23T03:24:04;2.43;;;2.17;;
14686;SDS011;7431;49.440;11.084;2023-03-23T03:26:36;2.53;;;2.20;;
14686;SDS011;7431;49.440;11.084;2023-03-23T03:29:06;2.50;;;2.30;;
14686;SDS011;7431;49.440;11.084;2023-03-23T03:31:33;3.43;;;2.17;;
14686;SDS011;7431;49.440;11.084;2023-03-23T03:34:03;2.73;;;2.07;;
14686;SDS011;7431;49.440;11.084;2023-03-23T03:36:30;2.57;;;2.27;;
14686;SDS011;7431;49.440;11.084;2023-03-23T03:39:07;2.07;;;1.80;;
14686;SDS011;7431;49.440;11.084;2023-03-23T03:41:34;2.37;;;2.17;;
14686;SDS011;7431;49.440;11.084;2023-03-23T03:44:01;2.43;;;2.10;;
14686;SDS011;7431;49.440;11.084;2023-03-23T03:46:27;2.30;;;2.10;;
14686;SDS011;7431;49.440;11.084;2023-03-23T03:48:55;2.30;;;1.90;;
14686;SDS011;7431;49.440;11.084;2023-03-23T03:51:21;2.50;;;1.80;;
14686;SDS011;7431;49.440;11.084;2023-03-23T03:53:47;3.03;;;2.10;;
14686;SDS011;7431;49.440;11.084;2023-03-23T03:56:13;2.17;;;1.97;;
14686;SDS011;7431;49.440;11.084;2023-03-23T03:58:39;3.13;;;2.00;;
14686;SDS011;7431;49.440;11.084;2023-03-23T04:01:07;2.20;;;2.00;;
14686;SDS011;7431;49.440;11.084;2023-03-23T04:03:36;4.20;;;2.20;;
14686;SDS011;7431;49.440;11.084;2023-03-23T04:06:02;2.10;;;1.90;;
14686;SDS011;7431;49.440;11.084;2023-03-23T04:08:31;3.37;;;1.93;;
14686;SDS011;7431;49.440;11.084;2023-03-23T04:10:57;2.40;;;2.13;;
14686;SDS011;7431;49.440;11.084;2023-03-23T04:13:23;3.03;;;2.10;;
14686;SDS011;7431;49.440;11.084;2023-03-23T04:15:48;2.30;;;2.10;;
14686;SDS011;7431;49.440;11.084;2023-03-23T04:18:15;2.33;;;2.10;;
14686;SDS011;7431;49.440;11.084;2023-03-23T04:20:43;2.37;;;1.93;;
14686;SDS011;7431;49.440;11.084;2023-03-23T04:23:12;2.47;;;2.20;;
14686;SDS011;7431;49.440;11.084;2023-03-23T04:25:38;2.73;;;1.90;;
14686;SDS011;7431;49.440;11.084;2023-03-23T04:28:06;3.60;;;2.30;;
14686;SDS011;7431;49.440;11.084;2023-03-23T04:30:35;2.30;;;1.90;;
14686;SDS011;7431;49.440;11.084;2023-03-23T04:33:01;2.43;;;2.20;;
14686;SDS011;7431;49.440;11.084;2023-03-23T04:35:27;2.40;;;2.20;;
14686;SDS011;7431;49.440;11.084;2023-03-23T04:37:54;4.23;;;2.20;;
14686;SDS011;7431;49.440;11.084;2023-03-23T04:40:20;3.70;;;2.30;;
14686;SDS011;7431;49.440;11.084;2023-03-23T04:42:47;4.47;;;2.20;;
14686;SDS011;7431;49.440;11.084;2023-03-23T04:45:14;3.73;;;2.20;;
14686;SDS011;7431;49.440;11.084;2023-03-23T04:47:46;2.17;;;1.97;;
14686;SDS011;7431;49.440;11.084;2023-03-23T04:50:18;3.23;;;2.07;;
14686;SDS011;7431;49.440;11.084;2023-03-23T04:52:46;2.27;;;1.90;;
14686;SDS011;7431;49.440;11.084;2023-03-23T04:55:12;3.70;;;2.30;;
14686;SDS011;7431;49.440;11.084;2023-03-23T04:57:39;4.50;;;2.00;;
14686;SDS011;7431;49.440;11.084;2023-03-23T05:00:09;3.53;;;2.20;;
14686;SDS011;7431;49.440;11.084;2023-03-23T05:02:41;2.40;;;2.17;;
14686;SDS011;7431;49.440;11.084;2023-03-23T05:05:08;3.70;;;2.37;;
14686;SDS011;7431;49.440;11.084;2023-03-23T05:07:39;3.77;;;2.33;;
14686;SDS011;7431;49.440;11.084;2023-03-23T05:10:07;2.70;;;2.30;;
14686;SDS011;7431;49.440;11.084;2023-03-23T05:12:35;2.40;;;2.20;;
14686;SDS011;7431;49.440;11.084;2023-03-23T05:15:01;2.67;;;2.27;;
14686;SDS011;7431;49.440;11.084;2023-03-23T05:17:26;2.60;;;2.40;;
14686;SDS011;7431;49.440;11.084;2023-03-23T05:19:55;3.97;;;2.23;;
14686;SDS011;7431;49.440;11.084;2023-03-23T05:22:21;2.60;;;2.30;;
14686;SDS011;7431;49.440;11.084;2023-03-23T05:24:47;2.43;;;2.23;;
14686;SDS011;7431;49.440;11.084;2023-03-23T05:27:16;4.87;;;2.53;;
14686;SDS011;7431;49.440;11.084;2023-03-23T05:29:43;2.43;;;2.23;;
14686;SDS011;7431;49.440;11.084;2023-03-23T05:32:10;4.30;;;2.73;;
14686;SDS011;7431;49.440;11.084;2023-03-23T05:34:36;3.40;;;2.40;;
14686;SDS011;7431;49.440;11.084;2023-03-23T05:37:02;3.70;;;2.50;;
14686;SDS011;7431;49.440;11.084;2023-03-23T05:39:29;3.20;;;2.23;;
14686;SDS011;7431;49.440;11.084;2023-03-23T05:41:56;4.23;;;2.30;;
14686;SDS011;7431;49.440;11.084;2023-03-23T05:44:22;4.77;;;2.90;;
14686;SDS011;7431;49.440;11.084;2023-03-23T05:46:48;5.77;;;3.23;;
14686;SDS011;7431;49.440;11.084;2023-03-23T05:49:14;4.57;;;2.60;;
14686;SDS011;7431;49.440;11.084;2023-03-23T05:51:43;2.70;;;2.40;;
14686;SDS011;7431;49.440;11.084;2023-03-23T05:54:11;3.23;;;2.73;;
14686;SDS011;7431;49.440;11.084;2023-03-23T05:56:37;4.50;;;2.80;;
14686;SDS011;7431;49.440;11.084;2023-03-23T05:59:03;3.93;;;3.00;;
14686;SDS011;7431;49.440;11.084;2023-03-23T06:01:29;4.37;;;2.80;;
14686;SDS011;7431;49.440;11.084;2023-03-23T06:03:55;4.13;;;2.80;;
14686;SDS011;7431;49.440;11.084;2023-03-23T06:06:23;3.43;;;2.70;;
14686;SDS011;7431;49.440;11.084;2023-03-23T06:08:50;3.47;;;2.77;;
14686;SDS011;7431;49.440;11.084;2023-03-23T06:11:15;4.30;;;2.60;;
14686;SDS011;7431;49.440;11.084;2023-03-23T06:13:41;4.97;;;2.70;;
14686;SDS011;7431;49.440;11.084;2023-03-23T06:16:07;3.70;;;2.87;;
14686;SDS011;7431;49.440;11.084;2023-03-23T06:18:33;3.80;;;2.93;;
14686;SDS011;7431;49.440;11.084;2023-03-23T06:21:01;3.30;;;2.73;;
14686;SDS011;7431;49.440;11.084;2023-03-23T06:23:27;6.37;;;3.10;;
14686;SDS011;7431;49.440;11.084;2023-03-23T06:25:54;2.57;;;2.37;;
14686;SDS011;7431;49.440;11.084;2023-03-23T06:28:22;3.80;;;3.10;;
14686;SDS011;7431;49.440;11.084;2023-03-23T06:30:48;5.30;;;3.20;;
14686;SDS011;7431;49.440;11.084;2023-03-23T06:33:13;4.33;;;3.33;;
14686;SDS011;7431;49.440;11.084;2023-03-23T06:35:40;5.87;;;3.50;;
14686;SDS011;7431;49.440;11.084;2023-03-23T06:38:05;5.73;;;2.97;;
14686;SDS011;7431;49.440;11.084;2023-03-23T06:40:31;5.07;;;3.10;;
14686;SDS011;7431;49.440;11.084;2023-03-23T06:42:57;3.07;;;2.63;;
14686;SDS011;7431;49.440;11.084;2023-03-23T06:45:24;4.17;;;2.70;;
14686;SDS011;7431;49.440;11.084;2023-03-23T06:47:50;4.27;;;2.90;;
14686;SDS011;7431;49.440;11.084;2023-03-23T06:50:18;6.57;;;3.23;;
14686;SDS011;7431;49.440;11.084;2023-03-23T06:52:47;7.83;;;3.20;;
14686;SDS011;7431;49.440;11.084;2023-03-23T06:55:14;4.10;;;3.13;;
14686;SDS011;7431;49.440;11.084;2023-03-23T06:57:40;3.37;;;3.00;;
14686;SDS011;7431;49.440;11.084;2023-03-23T07:00:07;3.97;;;3.20;;
14686;SDS011;7431;49.440;11.084;2023-03-23T07:02:37;5.87;;;3.27;;
14686;SDS011;7431;49.440;11.084;2023-03-23T07:05:03;7.07;;;2.90;;
14686;SDS011;7431;49.440;11.084;2023-03-23T07:07:29;5.70;;;3.43;;
14686;SDS011;7431;49.440;11.084;2023-03-23T07:09:54;5.47;;;3.50;;
14686;SDS011;7431;49.440;11.084;2023-03-23T07:12:20;4.13;;;2.88;;
14686;SDS011;7431;49.440;11.084;2023-03-23T07:14:46;5.28;;;3.50;;
14686;SDS011;7431;49.440;11.084;2023-03-23T07:17:12;3.90;;;3.33;;
14686;SDS011;7431;49.440;11.084;2023-03-23T07:19:38;5.00;;;3.17;;
14686;SDS011;7431;49.440;11.084;2023-03-23T07:22:04;3.60;;;3.17;;
14686;SDS011;7431;49.440;11.084;2023-03-23T07:24:32;4.45;;;2.85;;
14686;SDS011;7431;49.440;11.084;2023-03-23T07:26:59;3.22;;;2.92;;
14686;SDS011;7431;49.440;11.084;2023-03-23T07:29:25;3.92;;;2.90;;
14686;SDS011;7431;49.440;11.084;2023-03-23T07:31:51;3.90;;;2.88;;
14686;SDS011;7431;49.440;11.084;2023-03-23T07:34:17;7.22;;;3.15;;
14686;SDS011;7431;49.440;11.084;2023-03-23T07:36:44;4.78;;;2.80;;
14686;SDS011;7431;49.440;11.084;2023-03-23T07:39:10;3.35;;;2.70;;
14686;SDS011;7431;49.440;11.084;2023-03-23T07:41:37;4.35;;;3.25;;
14686;SDS011;7431;49.440;11.084;2023-03-23T07:44:03;4.28;;;2.85;;
14686;SDS011;7431;49.440;11.084;2023-03-23T07:46:29;3.20;;;2.90;;
14686;SDS011;7431;49.440;11.084;2023-03-23T07:48:55;4.47;;;3.40;;
14686;SDS011;7431;49.440;11.084;2023-03-23T07:51:21;4.38;;;3.38;;
14686;SDS011;7431;49.440;11.084;2023-03-23T07:53:47;5.13;;;3.40;;
14686;SDS011;7431;49.440;11.084;2023-03-23T07:56:15;5.35;;;3.60;;
14686;SDS011;7431;49.440;11.084;2023-03-23T07:58:56;5.78;;;3.60;;
14686;SDS011;7431;49.440;11.084;2023-03-23T08:01:22;4.70;;;3.33;;
14686;SDS011;7431;49.440;11.084;2023-03-23T08:03:48;5.90;;;4.18;;
14686;SDS011;7431;49.440;11.084;2023-03-23T08:06:15;4.60;;;3.50;;
14686;SDS011;7431;49.440;11.084;2023-03-23T08:08:40;4.57;;;3.50;;
14686;SDS011;7431;49.440;11.084;2023-03-23T08:11:06;6.97;;;3.63;;
14686;SDS011;7431;49.440;11.084;2023-03-23T08:13:32;4.50;;;3.17;;
14686;SDS011;7431;49.440;11.084;2023-03-23T08:16:01;4.35;;;3.65;;
14686;SDS011;7431;49.440;11.084;2023-03-23T08:18:30;3.92;;;3.35;;
14686;SDS011;7431;49.440;11.084;2023-03-23T08:20:56;4.28;;;3.45;;
14686;SDS011;7431;49.440;11.084;2023-03-23T08:23:22;4.10;;;3.33;;
14686;SDS011;7431;49.440;11.084;2023-03-23T08:25:48;4.22;;;3.58;;
14686;SDS011;7431;49.440;11.084;2023-03-23T08:28:14;4.50;;;3.63;;
14686;SDS011;7431;49.440;11.084;2023-03-23T08:30:40;4.35;;;3.95;;
14686;SDS011;7431;49.440;11.084;2023-03-23T08:33:06;5.88;;;3.70;;
14686;SDS011;7431;49.440;11.084;2023-03-23T08:35:32;3.67;;;3.30;;
14686;SDS011;7431;49.440;11.084;2023-03-23T08:37:59;4.78;;;3.70;;
14686;SDS011;7431;49.440;11.084;2023-03-23T08:40:25;3.70;;;3.15;;
14686;SDS011;7431;49.440;11.084;2023-03-23T08:42:51;5.50;;;3.72;;
14686;SDS011;7431;49.440;11.084;2023-03-23T08:45:18;4.30;;;3.30;;
14686;SDS011;7431;49.440;11.084;2023-03-23T08:47:46;4.95;;;3.45;;
14686;SDS011;7431;49.440;11.084;2023-03-23T08:50:18;5.18;;;3.80;;
14686;SDS011;7431;49.440;11.084;2023-03-23T08:52:47;7.32;;;3.58;;
14686;SDS011;7431;49.440;11.084;2023-03-23T08:55:14;4.00;;;3.47;;
14686;SDS011;7431;49.440;11.084;2023-03-23T08:57:42;3.50;;;3.20;;
14686;SDS011;7431;49.440;11.084;2023-03-23T09:00:10;5.10;;;3.58;;
14686;SDS011;7431;49.440;11.084;2023-03-23T09:02:48;5.30;;;3.70;;
14686;SDS011;7431;49.440;11.084;2023-03-23T09:05:15;3.95;;;3.50;;
14686;SDS011;7431;49.440;11.084;2023-03-23T09:07:44;3.30;;;3.00;;
14686;SDS011;7431;49.440;11.084;2023-03-23T09:10:11;6.35;;;3.25;;
14686;SDS011;7431;49.440;11.084;2023-03-23T09:12:38;4.03;;;2.92;;
14686;SDS011;7431;49.440;11.084;2023-03-23T09:15:04;3.63;;;3.28;;
14686;SDS011;7431;49.440;11.084;2023-03-23T09:17:33;3.97;;;3.13;;
14686;SDS011;7431;49.440;11.084;2023-03-23T09:20:03;4.50;;;3.00;;
14686;SDS011;7431;49.440;11.084;2023-03-23T09:22:35;3.55;;;3.22;;
14686;SDS011;7431;49.440;11.084;2023-03-23T09:25:01;4.32;;;3.38;;
14686;SDS011;7431;49.440;11.084;2023-03-23T09:27:27;6.60;;;3.50;;
14686;SDS011;7431;49.440;11.084;2023-03-23T09:29:53;6.18;;;3.85;;
14686;SDS011;7431;49.440;11.084;2023-03-23T09:32:20;7.40;;;4.20;;
14686;SDS011;7431;49.440;11.084;2023-03-23T09:34:47;5.40;;;4.00;;
14686;SDS011;7431;49.440;11.084;2023-03-23T09:37:13;7.47;;;4.15;;
14686;SDS011;7431;49.440;11.084;2023-03-23T09:39:39;5.43;;;4.15;;
14686;SDS011;7431;49.440;11.084;2023-03-23T09:44:55;6.05;;;3.38;;
14686;SDS011;7431;49.440;11.084;2023-03-23T09:48:17;4.45;;;3.88;;
14686;SDS011;7431;49.440;11.084;2023-03-23T09:50:18;4.28;;;3.50;;
14686;SDS011;7431;49.440;11.084;2023-03-23T09:55:18;5.88;;;3.47;;
14686;SDS011;7431;49.440;11.084;2023-03-23T09:57:59;3.70;;;2.97;;
14686;SDS011;7431;49.440;11.084;2023-03-23T10:00:53;4.75;;;3.45;;
14686;SDS011;7431;49.440;11.084;2023-03-23T10:03:31;3.72;;;3.10;;
14686;SDS011;7431;49.440;11.084;2023-03-23T10:06:02;4.45;;;3.60;;
14686;SDS011;7431;49.440;11.084;2023-03-23T10:08:31;7.88;;;3.70;;
14686;SDS011;7431;49.440;11.084;2023-03-23T10:22:04;4.57;;;3.30;;
14686;SDS011;7431;49.440;11.084;2023-03-23T10:25:18;3.72;;;3.08;;
14686;SDS011;7431;49.440;11.084;2023-03-23T10:33:54;4.78;;;3.30;;
14686;SDS011;7431;49.440;11.084;2023-03-23T10:35:48;3.55;;;3.00;;
14686;SDS011;7431;49.440;11.084;2023-03-23T10:38:27;3.97;;;3.25;;
14686;SDS011;7431;49.440;11.084;2023-03-23T10:41:06;4.25;;;3.25;;
14686;SDS011;7431;49.440;11.084;2023-03-23T10:43:37;3.53;;;3.00;;
14686;SDS011;7431;49.440;11.084;2023-03-23T10:49:02;3.10;;;2.83;;
14686;SDS011;7431;49.440;11.084;2023-03-23T10:51:37;2.42;;;2.20;;
14686;SDS011;7431;49.440;11.084;2023-03-23T10:54:07;5.63;;;2.33;;
14686;SDS011;7431;49.440;11.084;2023-03-23T10:56:50;5.20;;;2.60;;
14686;SDS011;7431;49.440;11.084;2023-03-23T10:59:27;2.03;;;1.92;;
14686;SDS011;7431;49.440;11.084;2023-03-23T11:01:55;2.42;;;2.20;;
14686;SDS011;7431;49.440;11.084;2023-03-23T11:04:23;3.05;;;2.15;;
14686;SDS011;7431;49.440;11.084;2023-03-23T11:06:51;2.78;;;2.40;;
14686;SDS011;7431;49.440;11.084;2023-03-23T11:09:18;5.75;;;2.28;;
14686;SDS011;7431;49.440;11.084;2023-03-23T11:11:50;4.43;;;2.30;;
14686;SDS011;7431;49.440;11.084;2023-03-23T11:14:18;4.40;;;2.33;;
14686;SDS011;7431;49.440;11.084;2023-03-23T11:16:59;2.95;;;2.00;;
14686;SDS011;7431;49.440;11.084;2023-03-23T11:19:36;3.35;;;2.20;;
14686;SDS011;7431;49.440;11.084;2023-03-23T11:22:06;2.40;;;2.10;;
14686;SDS011;7431;49.440;11.084;2023-03-23T11:24:42;3.70;;;2.78;;
14686;SDS011;7431;49.440;11.084;2023-03-23T11:27:10;2.55;;;1.90;;
14686;SDS011;7431;49.440;11.084;2023-03-23T11:29:42;2.33;;;2.08;;
14686;SDS011;7431;49.440;11.084;2023-03-23T11:32:28;4.05;;;2.13;;
14686;SDS011;7431;49.440;11.084;2023-03-23T11:34:59;2.50;;;2.30;;
14686;SDS011;7431;49.440;11.084;2023-03-23T11:37:35;2.20;;;2.00;;
14686;SDS011;7431;49.440;11.084;2023-03-23T11:42:56;3.35;;;2.40;;
14686;SDS011;7431;49.440;11.084;2023-03-23T11:50:48;4.45;;;2.40;;
14686;SDS011;7431;49.440;11.084;2023-03-23T11:53:47;2.55;;;1.83;;
14686;SDS011;7431;49.440;11.084;2023-03-23T11:56:27;4.57;;;3.10;;
14686;SDS011;7431;49.440;11.084;2023-03-23T11:59:01;3.00;;;2.30;;
14686;SDS011;7431;49.440;11.084;2023-03-23T12:28:31;2.70;;;2.50;;
14686;SDS011;7431;49.440;11.084;2023-03-23T12:31:27;3.53;;;2.40;;
14686;SDS011;7431;49.440;11.084;2023-03-23T12:39:57;2.85;;;2.25;;
14686;SDS011;7431;49.440;11.084;2023-03-23T12:45:21;3.28;;;2.33;;
14686;SDS011;7431;49.440;11.084;2023-03-23T12:48:16;2.85;;;2.30;;
14686;SDS011;7431;49.440;11.084;2023-03-23T12:53:33;2.72;;;1.92;;
14686;SDS011;7431;49.440;11.084;2023-03-23T12:59:12;1.92;;;1.83;;
14686;SDS011;7431;49.440;11.084;2023-03-23T13:01:45;3.75;;;1.92;;
14686;SDS011;7431;49.440;11.084;2023-03-23T13:04:17;2.55;;;1.80;;
14686;SDS011;7431;49.440;11.084;2023-03-23T13:06:47;2.65;;;1.90;;
14686;SDS011;7431;49.440;11.084;2023-03-23T13:09:33;2.60;;;1.83;;
14686;SDS011;7431;49.440;11.084;2023-03-23T13:12:04;3.65;;;1.90;;
14686;SDS011;7431;49.440;11.084;2023-03-23T13:23:19;4.00;;;2.28;;
14686;SDS011;7431;49.440;11.084;2023-03-23T13:28:20;6.45;;;3.90;;
14686;SDS011;7431;49.440;11.084;2023-03-23T13:33:57;2.08;;;1.50;;
14686;SDS011;7431;49.440;11.084;2023-03-23T13:36:51;2.00;;;1.80;;
14686;SDS011;7431;49.440;11.084;2023-03-23T13:39:24;2.00;;;1.80;;
14686;SDS011;7431;49.440;11.084;2023-03-23T13:42:04;5.03;;;1.88;;
14686;SDS011;7431;49.440;11.084;2023-03-23T13:52:39;2.35;;;2.10;;
14686;SDS011;7431;49.440;11.084;2023-03-23T13:57:56;3.45;;;1.83;;
14686;SDS011;7431;49.440;11.084;2023-03-23T14:10:34;2.70;;;2.30;;
14686;SDS011;7431;49.440;11.084;2023-03-23T14:13:19;3.25;;;2.80;;
14686;SDS011;7431;49.440;11.084;2023-03-23T14:16:04;5.72;;;3.35;;
14686;SDS011;7431;49.440;11.084;2023-03-23T14:18:48;3.17;;;2.50;;
14686;SDS011;7431;49.440;11.084;2023-03-23T14:21:21;2.30;;;2.08;;
14686;SDS011;7431;49.440;11.084;2023-03-23T14:23:59;3.20;;;2.55;;
14686;SDS011;7431;49.440;11.084;2023-03-23T14:26:26;4.28;;;3.00;;
14686;SDS011;7431;49.440;11.084;2023-03-23T14:28:52;4.85;;;2.20;;
14686;SDS011;7431;49.440;11.084;2023-03-23T14:31:22;3.20;;;2.53;;
14686;SDS011;7431;49.440;11.084;2023-03-23T14:33:52;2.20;;;2.00;;
14686;SDS011;7431;49.440;11.084;2023-03-23T14:36:20;5.57;;;3.70;;
14686;SDS011;7431;49.440;11.084;2023-03-23T14:38:48;2.85;;;2.50;;
14686;SDS011;7431;49.440;11.084;2023-03-23T14:41:35;3.63;;;2.70;;
14686;SDS011;7431;49.440;11.084;2023-03-23T14:44:01;2.65;;;2.45;;
14686;SDS011;7431;49.440;11.084;2023-03-23T14:46:29;2.53;;;2.33;;
14686;SDS011;7431;49.440;11.084;2023-03-23T14:48:56;2.75;;;2.10;;
14686;SDS011;7431;49.440;11.084;2023-03-23T14:51:25;2.20;;;2.00;;
14686;SDS011;7431;49.440;11.084;2023-03-23T14:53:51;2.90;;;2.10;;
14686;SDS011;7431;49.440;11.084;2023-03-23T14:56:19;2.58;;;2.17;;
14686;SDS011;7431;49.440;11.084;2023-03-23T14:58:51;3.40;;;2.35;;
14686;SDS011;7431;49.440;11.084;2023-03-23T15:01:24;3.53;;;2.25;;
14686;SDS011;7431;49.440;11.084;2023-03-23T15:06:26;2.92;;;2.15;;
14686;SDS011;7431;49.440;11.084;2023-03-23T15:08:54;3.35;;;2.63;;
14686;SDS011;7431;49.440;11.084;2023-03-23T15:13:54;3.95;;;2.70;;
14686;SDS011;7431;49.440;11.084;2023-03-23T15:16:23;3.15;;;2.83;;
14686;SDS011;7431;49.440;11.084;2023-03-23T15:21:27;2.97;;;2.50;;
14686;SDS011;7431;49.440;11.084;2023-03-23T15:23:59;3.13;;;2.78;;
14686;SDS011;7431;49.440;11.084;2023-03-23T15:26:27;4.50;;;2.45;;
14686;SDS011;7431;49.440;11.084;2023-03-23T15:31:43;5.28;;;2.58;;
14686;SDS011;7431;49.440;11.084;2023-03-23T15:34:15;3.53;;;2.70;;
14686;SDS011;7431;49.440;11.084;2023-03-23T15:36:59;4.00;;;2.45;;
14686;SDS011;7431;49.440;11.084;2023-03-23T15:39:27;3.10;;;2.50;;
14686;SDS011;7431;49.440;11.084;2023-03-23T15:41:54;4.47;;;2.90;;
14686;SDS011;7431;49.440;11.084;2023-03-23T15:44:30;2.60;;;2.40;;
14686;SDS011;7431;49.440;11.084;2023-03-23T15:47:16;3.33;;;2.70;;
14686;SDS011;7431;49.440;11.084;2023-03-23T15:49:44;3.00;;;2.70;;
14686;SDS011;7431;49.440;11.084;2023-03-23T15:52:12;3.47;;;3.17;;
14686;SDS011;7431;49.440;11.084;2023-03-23T15:54:45;2.80;;;2.60;;
14686;SDS011;7431;49.440;11.084;2023-03-23T15:57:12;5.13;;;3.15;;
14686;SDS011;7431;49.440;11.084;2023-03-23T15:59:37;3.15;;;2.63;;
14686;SDS011;7431;49.440;11.084;2023-03-23T16:02:03;3.10;;;2.80;;
14686;SDS011;7431;49.440;11.084;2023-03-23T16:04:29;8.38;;;6.03;;
14686;SDS011;7431;49.440;11.084;2023-03-23T16:06:55;4.47;;;3.22;;
14686;SDS011;7431;49.440;11.084;2023-03-23T16:09:23;3.63;;;2.95;;
14686;SDS011;7431;49.440;11.084;2023-03-23T16:11:48;6.50;;;4.38;;
14686;SDS011;7431;49.440;11.084;2023-03-23T16:14:14;4.68;;;3.58;;
14686;SDS011;7431;49.440;11.084;2023-03-23T16:16:48;4.00;;;3.60;;
14686;SDS011;7431;49.440;11.084;2023-03-23T16:19:16;4.38;;;3.75;;
14686;SDS011;7431;49.440;11.084;2023-03-23T16:21:44;4.65;;;3.15;;
14686;SDS011;7431;49.440;11.084;2023-03-23T16:24:10;4.30;;;3.47;;
14686;SDS011;7431;49.440;11.084;2023-03-23T16:26:35;4.72;;;3.60;;
14686;SDS011;7431;49.440;11.084;2023-03-23T16:29:08;9.00;;;7.55;;
14686;SDS011;7431;49.440;11.084;2023-03-23T16:31:38;5.80;;;4.60;;
14686;SDS011;7431;49.440;11.084;2023-03-23T16:34:03;3.97;;;3.58;;
14686;SDS011;7431;49.440;11.084;2023-03-23T16:36:29;9.02;;;7.88;;
14686;SDS011;7431;49.440;11.084;2023-03-23T16:38:55;7.10;;;6.40;;
14686;SDS011;7431;49.440;11.084;2023-03-23T16:41:20;8.55;;;7.65;;
14686;SDS011;7431;49.440;11.084;2023-03-23T16:43:46;6.25;;;4.43;;
14686;SDS011;7431;49.440;11.084;2023-03-23T16:46:11;7.35;;;5.05;;
14686;SDS011;7431;49.440;11.084;2023-03-23T16:48:38;4.70;;;4.20;;
14686;SDS011;7431;49.440;11.084;2023-03-23T16:51:04;7.05;;;5.40;;
14686;SDS011;7431;49.440;11.084;2023-03-23T16:53:30;6.50;;;4.35;;
14686;SDS011;7431;49.440;11.084;2023-03-23T16:55:56;4.68;;;4.20;;
14686;SDS011;7431;49.440;11.084;2023-03-23T16:58:22;4.90;;;4.22;;
14686;SDS011;7431;49.440;11.084;2023-03-23T17:00:48;6.40;;;4.45;;
14686;SDS011;7431;49.440;11.084;2023-03-23T17:03:16;6.10;;;5.57;;
14686;SDS011;7431;49.440;11.084;2023-03-23T17:05:43;7.00;;;4.78;;
14686;SDS011;7431;49.440;11.084;2023-03-23T17:08:08;5.88;;;4.68;;
14686;SDS011;7431;49.440;11.084;2023-03-23T17:10:34;6.05;;;4.80;;
14686;SDS011;7431;49.440;11.084;2023-03-23T17:13:03;6.85;;;5.22;;
14686;SDS011;7431;49.440;11.084;2023-03-23T17:15:28;5.15;;;4.50;;
14686;SDS011;7431;49.440;11.084;2023-03-23T17:17:54;5.20;;;4.07;;
14686;SDS011;7431;49.440;11.084;2023-03-23T17:20:20;5.25;;;4.10;;